Time;durP1;ratioP1;P1;durP2;ratioP2;P2;SDS_P1;SDS_P2;PMS_P1;PMS_P2;Temp;Humidity;BMP_temperature;BMP_pressure;BME280_temperature;BME280_humidity;BME280_pressure;Samples;Min_cycle;Max_cycle;Signal;HPM_P1;HPM_P2
2022/10/28 00:02:16;;;;;;;22.75;10.95;;;;;;;;;;5147190;27;20051;-81
2022/10/28 00:04:42;;;;;;;16.70;9.45;;;;;;;;;;5130146;27;20051;-85
2022/10/28 00:07:08;;;;;;;16.85;9.10;;;;;;;;;;5130635;27;20875;-81
2022/10/28 00:09:34;;;;;;;19.80;9.40;;;;;;;;;;5131187;27;20055;-82
2022/10/28 00:12:01;;;;;;;19.15;8.95;;;;;;;;;;5133464;27;20047;-82
2022/10/28 00:14:27;;;;;;;20.02;9.40;;;;;;;;;;5128254;27;20058;-84
2022/10/28 00:16:53;;;;;;;18.02;8.98;;;;;;;;;;5132056;27;20059;-81
2022/10/28 00:19:20;;;;;;;19.30;9.73;;;;;;;;;;5146915;27;20517;-85
2022/10/28 00:21:46;;;;;;;19.88;8.95;;;;;;;;;;5126710;27;20051;-82
2022/10/28 00:24:13;;;;;;;16.23;8.57;;;;;;;;;;5129775;27;20172;-81
2022/10/28 00:26:44;;;;;;;19.55;9.48;;;;;;;;;;5147804;27;20088;-81
2022/10/28 00:29:15;;;;;;;21.45;9.27;;;;;;;;;;5120072;27;20058;-82
2022/10/28 00:31:41;;;;;;;;;;;;;;;;;;5148907;27;20066;-80
2022/10/28 00:34:10;;;;;;;19.33;9.50;;;;;;;;;;5125343;27;47757;-81
2022/10/28 00:36:38;;;;;;;22.55;9.55;;;;;;;;;;5130767;27;20058;-81
2022/10/28 00:39:09;;;;;;;22.40;9.48;;;;;;;;;;5129919;27;20051;-82
2022/10/28 00:41:37;;;;;;;26.10;10.95;;;;;;;;;;5148712;27;20054;-84
2022/10/28 00:44:22;;;;;;;20.48;9.35;;;;;;;;;;5128407;27;20043;-84
2022/10/28 00:46:50;;;;;;;19.85;9.65;;;;;;;;;;5122955;27;20079;-82
2022/10/28 00:49:24;;;;;;;21.23;10.10;;;;;;;;;;5129652;27;20932;-83
2022/10/28 00:51:52;;;;;;;19.77;9.88;;;;;;;;;;5118995;27;20055;-82
2022/10/28 00:54:19;;;;;;;17.50;9.35;;;;;;;;;;5120771;27;20059;-82
2022/10/28 00:56:48;;;;;;;21.58;9.18;;;;;;;;;;5155997;27;20063;-82
2022/10/28 00:59:20;;;;;;;16.27;9.20;;;;;;;;;;5138205;27;20047;-83
2022/10/28 01:01:46;;;;;;;20.90;9.32;;;;;;;;;;5116250;27;20804;-83
2022/10/28 01:04:13;;;;;;;16.48;9.48;;;;;;;;;;5123182;27;20044;-83
2022/10/28 01:06:40;;;;;;;16.65;8.77;;;;;;;;;;5137064;27;20055;-83
2022/10/28 01:09:06;;;;;;;16.77;8.77;;;;;;;;;;5136495;27;20055;-83
2022/10/28 01:11:42;;;;;;;16.73;8.57;;;;;;;;;;5134605;27;20050;-86
2022/10/28 01:14:15;;;;;;;16.98;9.07;;;;;;;;;;5156864;27;20047;-86
2022/10/28 01:17:00;;;;;;;16.77;8.98;;;;;;;;;;5129805;27;20052;-85
2022/10/28 01:19:44;;;;;;;20.48;8.80;;;;;;;;;;5112804;27;20051;-83
2022/10/28 01:22:20;;;;;;;20.73;8.95;;;;;;;;;;5115126;27;20047;-82
2022/10/28 01:25:05;;;;;;;20.55;9.45;;;;;;;;;;5133021;27;20070;-83
2022/10/28 01:27:49;;;;;;;21.58;9.73;;;;;;;;;;5132375;27;20048;-84
2022/10/28 01:30:17;;;;;;;19.35;8.88;;;;;;;;;;5130974;27;20067;-85
2022/10/28 01:32:53;;;;;;;19.60;8.82;;;;;;;;;;5130616;27;20059;-86
2022/10/28 01:35:35;;;;;;;18.23;8.40;;;;;;;;;;5123573;27;20058;-82
2022/10/28 01:38:24;;;;;;;18.77;9.05;;;;;;;;;;5161160;27;20046;-81
2022/10/28 01:40:53;;;;;;;15.98;8.05;;;;;;;;;;5121181;27;20055;-83
2022/10/28 01:43:23;;;;;;;16.10;8.18;;;;;;;;;;5142809;27;20051;-82
2022/10/28 01:45:54;;;;;;;18.65;9.20;;;;;;;;;;5151269;27;20058;-83
2022/10/28 01:48:22;;;;;;;18.42;8.07;;;;;;;;;;5134713;27;20066;-83
2022/10/28 01:50:58;;;;;;;22.30;9.63;;;;;;;;;;5132511;27;20143;-85
2022/10/28 01:53:28;;;;;;;19.48;7.82;;;;;;;;;;5133378;27;20055;-83
2022/10/28 01:55:55;;;;;;;16.70;8.37;;;;;;;;;;5133734;27;20098;-85
2022/10/28 01:58:24;;;;;;;18.75;7.88;;;;;;;;;;5134285;27;20054;-85
2022/10/28 02:00:50;;;;;;;18.60;8.80;;;;;;;;;;5134562;27;20051;-83
2022/10/28 02:03:17;;;;;;;16.67;8.30;;;;;;;;;;5151700;27;20047;-81
2022/10/28 02:05:47;;;;;;;13.27;7.40;;;;;;;;;;5133776;27;20055;-83
2022/10/28 02:08:17;;;;;;;18.48;8.40;;;;;;;;;;5130937;27;21185;-84
2022/10/28 02:10:49;;;;;;;15.20;7.82;;;;;;;;;;5127778;27;20527;-82
2022/10/28 02:13:16;;;;;;;16.38;7.78;;;;;;;;;;5133528;27;20056;-82
2022/10/28 02:16:01;;;;;;;15.07;8.20;;;;;;;;;;5127789;27;20150;-83
2022/10/28 02:18:40;;;;;;;13.57;7.57;;;;;;;;;;5139107;27;20434;-84
2022/10/28 02:21:22;;;;;;;19.10;8.60;;;;;;;;;;5152086;27;20047;-83
2022/10/28 02:23:56;;;;;;;16.40;7.55;;;;;;;;;;5134454;27;20058;-83
2022/10/28 02:26:40;;;;;;;19.15;9.20;;;;;;;;;;5134359;27;20055;-86
2022/10/28 02:29:12;;;;;;;21.50;8.30;;;;;;;;;;5133487;27;20050;-82
2022/10/28 02:31:42;;;;;;;14.52;7.47;;;;;;;;;;5132584;27;20051;-82
2022/10/28 02:34:10;;;;;;;17.60;7.73;;;;;;;;;;5133921;27;20058;-82
2022/10/28 02:36:39;;;;;;;17.25;8.02;;;;;;;;;;5134499;27;21273;-81
2022/10/28 02:39:06;;;;;;;15.63;7.57;;;;;;;;;;5132728;27;20058;-81
2022/10/28 02:41:37;;;;;;;15.90;7.78;;;;;;;;;;5129705;27;20059;-85
2022/10/28 02:44:10;;;;;;;16.17;7.35;;;;;;;;;;5133497;27;20054;-85
2022/10/28 02:46:38;;;;;;;20.17;8.02;;;;;;;;;;5132936;27;20054;-83
2022/10/28 02:49:06;;;;;;;18.10;7.63;;;;;;;;;;5140273;27;20058;-85
2022/10/28 02:51:34;;;;;;;11.80;6.50;;;;;;;;;;5116761;27;20109;-84
2022/10/28 02:54:03;;;;;;;13.77;6.22;;;;;;;;;;5132525;27;20047;-83
2022/10/28 02:56:33;;;;;;;11.73;5.88;;;;;;;;;;5133077;27;20074;-83
2022/10/28 02:58:59;;;;;;;12.43;5.18;;;;;;;;;;5129895;27;20060;-82
2022/10/28 03:01:26;;;;;;;11.30;5.25;;;;;;;;;;5120068;27;20044;-82
2022/10/28 03:03:52;;;;;;;10.75;5.15;;;;;;;;;;5133244;27;20938;-86
2022/10/28 03:06:18;;;;;;;9.60;5.05;;;;;;;;;;5128897;27;20048;-86
2022/10/28 03:08:45;;;;;;;11.45;5.18;;;;;;;;;;5147298;27;20102;-84
2022/10/28 03:11:11;;;;;;;11.80;5.55;;;;;;;;;;5132245;27;20055;-82
2022/10/28 03:13:37;;;;;;;12.70;5.65;;;;;;;;;;5151339;27;20043;-84
2022/10/28 03:16:04;;;;;;;10.90;5.28;;;;;;;;;;5151711;27;20149;-82
2022/10/28 03:18:30;;;;;;;15.52;5.95;;;;;;;;;;5133193;27;20039;-81
2022/10/28 03:20:56;;;;;;;10.07;5.50;;;;;;;;;;5149645;27;20054;-82
2022/10/28 03:23:24;;;;;;;20.85;5.78;;;;;;;;;;5132718;27;20050;-84
2022/10/28 03:25:50;;;;;;;16.98;6.80;;;;;;;;;;5130590;27;20051;-83
2022/10/28 03:28:17;;;;;;;16.23;7.00;;;;;;;;;;5121085;27;20122;-83
2022/10/28 03:30:43;;;;;;;12.38;6.20;;;;;;;;;;5130867;27;20528;-81
2022/10/28 03:33:09;;;;;;;14.10;6.90;;;;;;;;;;5126544;27;20059;-81
2022/10/28 03:35:36;;;;;;;19.13;7.63;;;;;;;;;;5129567;27;20054;-80
2022/10/28 03:38:02;;;;;;;20.00;7.95;;;;;;;;;;5131042;27;20158;-87
2022/10/28 03:40:29;;;;;;;17.13;8.63;;;;;;;;;;5131135;27;20051;-86
2022/10/28 03:42:55;;;;;;;17.98;8.55;;;;;;;;;;5139025;27;20055;-84
2022/10/28 03:45:22;;;;;;;17.45;7.65;;;;;;;;;;5129629;27;20943;-81
2022/10/28 03:47:48;;;;;;;18.95;8.00;;;;;;;;;;5150181;27;20061;-83
2022/10/28 03:50:14;;;;;;;21.67;9.23;;;;;;;;;;5131218;27;20085;-84
2022/10/28 03:52:41;;;;;;;19.80;8.05;;;;;;;;;;5129488;27;20521;-81
2022/10/28 03:55:08;;;;;;;22.20;8.50;;;;;;;;;;5127399;27;20058;-84
2022/10/28 03:57:34;;;;;;;22.88;8.23;;;;;;;;;;5125402;27;20055;-84
2022/10/28 04:00:01;;;;;;;22.40;9.63;;;;;;;;;;5120857;27;20043;-82
2022/10/28 04:02:27;;;;;;;21.30;8.40;;;;;;;;;;5129778;27;20051;-85
2022/10/28 04:04:54;;;;;;;18.15;8.18;;;;;;;;;;5131562;27;20059;-85
2022/10/28 04:07:20;;;;;;;22.85;8.77;;;;;;;;;;5150018;27;20055;-86
2022/10/28 04:09:50;;;;;;;21.25;8.80;;;;;;;;;;5128638;27;20059;-84
2022/10/28 04:12:17;;;;;;;20.10;9.90;;;;;;;;;;5139156;27;20059;-87
2022/10/28 04:14:43;;;;;;;22.42;8.70;;;;;;;;;;5110849;27;20082;-83
2022/10/28 04:17:09;;;;;;;27.63;9.70;;;;;;;;;;5129685;27;20060;-81
2022/10/28 04:19:36;;;;;;;22.95;8.55;;;;;;;;;;5129668;27;20854;-82
2022/10/28 04:22:02;;;;;;;22.30;8.52;;;;;;;;;;5141570;27;20062;-81
2022/10/28 04:24:28;;;;;;;25.38;9.88;;;;;;;;;;5149171;27;20134;-82
2022/10/28 04:26:54;;;;;;;19.45;7.78;;;;;;;;;;5130132;27;20070;-83
2022/10/28 04:29:21;;;;;;;19.27;8.70;;;;;;;;;;5130392;27;20906;-84
2022/10/28 04:31:47;;;;;;;19.40;9.57;;;;;;;;;;5129071;27;20250;-85
2022/10/28 04:34:17;;;;;;;20.92;9.80;;;;;;;;;;5147936;27;20071;-87
2022/10/28 04:36:43;;;;;;;24.55;9.40;;;;;;;;;;5148900;27;20058;-87
2022/10/28 04:39:10;;;;;;;25.25;9.57;;;;;;;;;;5129871;27;20537;-85
2022/10/28 04:41:36;;;;;;;24.17;10.27;;;;;;;;;;5143882;27;20059;-85
2022/10/28 04:44:02;;;;;;;21.85;9.40;;;;;;;;;;5140806;27;20055;-86
2022/10/28 04:46:28;;;;;;;25.77;9.45;;;;;;;;;;5149006;27;20051;-82
2022/10/28 04:48:55;;;;;;;30.80;10.02;;;;;;;;;;5115880;27;20055;-81
2022/10/28 04:51:21;;;;;;;21.55;8.85;;;;;;;;;;5132925;27;20050;-81
2022/10/28 04:53:47;;;;;;;20.85;8.70;;;;;;;;;;5123625;27;20066;-85
2022/10/28 04:56:14;;;;;;;24.38;9.18;;;;;;;;;;5129998;27;20070;-83
2022/10/28 04:58:40;;;;;;;19.25;8.80;;;;;;;;;;5128273;27;20055;-81
2022/10/28 05:01:08;;;;;;;20.15;9.18;;;;;;;;;;5129257;27;20046;-82
2022/10/28 05:03:35;;;;;;;21.95;9.18;;;;;;;;;;5129639;27;20871;-84
2022/10/28 05:06:01;;;;;;;19.30;8.45;;;;;;;;;;5125865;27;20036;-87
2022/10/28 05:08:28;;;;;;;19.60;8.32;;;;;;;;;;5127190;27;20062;-85
2022/10/28 05:10:54;;;;;;;20.08;8.18;;;;;;;;;;5127699;27;20051;-84
2022/10/28 05:13:20;;;;;;;17.95;8.88;;;;;;;;;;5129715;27;20120;-82
2022/10/28 05:15:47;;;;;;;15.52;7.85;;;;;;;;;;5124699;27;21018;-82
2022/10/28 05:18:13;;;;;;;20.88;9.00;;;;;;;;;;5148536;27;20051;-88
2022/10/28 05:20:40;;;;;;;22.08;9.48;;;;;;;;;;5126204;27;20059;-86
2022/10/28 05:23:06;;;;;;;16.92;9.02;;;;;;;;;;5132331;27;20058;-85
2022/10/28 05:25:32;;;;;;;24.50;8.43;;;;;;;;;;5133739;27;20055;-87
2022/10/28 05:27:59;;;;;;;21.55;9.05;;;;;;;;;;5133317;27;20049;-83
2022/10/28 05:30:26;;;;;;;25.08;8.77;;;;;;;;;;5133067;27;20051;-82
2022/10/28 05:33:00;;;;;;;19.00;8.13;;;;;;;;;;5154301;27;20050;-87
2022/10/28 05:35:27;;;;;;;20.55;8.88;;;;;;;;;;5154012;27;20059;-87
2022/10/28 05:37:53;;;;;;;21.10;8.57;;;;;;;;;;5154464;27;20055;-83
2022/10/28 05:40:20;;;;;;;19.45;8.35;;;;;;;;;;5141759;27;20350;-83
2022/10/28 05:42:46;;;;;;;19.77;8.40;;;;;;;;;;5134083;27;20441;-84
2022/10/28 05:45:12;;;;;;;18.40;7.68;;;;;;;;;;5129887;27;20051;-86
2022/10/28 05:47:43;;;;;;;15.35;7.65;;;;;;;;;;5128087;27;20051;-81
2022/10/28 05:50:09;;;;;;;20.77;8.80;;;;;;;;;;5139940;27;20066;-81
2022/10/28 05:52:36;;;;;;;20.65;8.80;;;;;;;;;;5144829;27;20043;-83
2022/10/28 05:55:02;;;;;;;24.55;8.80;;;;;;;;;;5127373;27;20047;-83
2022/10/28 05:57:28;;;;;;;22.38;8.57;;;;;;;;;;5131118;27;20055;-81
2022/10/28 05:59:55;;;;;;;20.60;9.15;;;;;;;;;;5124796;27;20031;-82
2022/10/28 06:02:21;;;;;;;25.15;9.55;;;;;;;;;;5121728;27;20067;-80
2022/10/28 06:04:47;;;;;;;22.05;9.65;;;;;;;;;;5147986;27;20056;-85
2022/10/28 06:07:14;;;;;;;18.27;8.65;;;;;;;;;;5132439;27;20059;-81
2022/10/28 06:09:40;;;;;;;19.20;8.35;;;;;;;;;;5127275;27;20915;-80
2022/10/28 06:12:07;;;;;;;18.23;8.70;;;;;;;;;;5148604;27;20742;-79
2022/10/28 06:14:33;;;;;;;20.92;8.60;;;;;;;;;;5129151;27;20512;-81
2022/10/28 06:16:59;;;;;;;16.27;7.68;;;;;;;;;;5121448;27;20052;-82
2022/10/28 06:19:26;;;;;;;18.52;8.23;;;;;;;;;;5129150;27;20100;-80
2022/10/28 06:21:52;;;;;;;19.92;7.82;;;;;;;;;;5125921;27;20888;-82
2022/10/28 06:24:18;;;;;;;20.27;8.15;;;;;;;;;;5130240;27;20051;-79
2022/10/28 06:26:44;;;;;;;21.25;8.40;;;;;;;;;;5149350;27;20051;-82
2022/10/28 06:29:11;;;;;;;19.27;8.98;;;;;;;;;;5129241;27;20055;-79
2022/10/28 06:31:38;;;;;;;22.08;8.55;;;;;;;;;;5146884;27;20051;-84
2022/10/28 06:34:04;;;;;;;22.10;8.02;;;;;;;;;;5132406;27;20552;-82
2022/10/28 06:36:31;;;;;;;19.08;8.10;;;;;;;;;;5149328;27;20054;-80
2022/10/28 06:38:57;;;;;;;18.20;7.75;;;;;;;;;;5149526;27;20784;-81
2022/10/28 06:41:23;;;;;;;18.52;8.18;;;;;;;;;;5131308;27;20059;-81
2022/10/28 06:43:50;;;;;;;17.63;7.20;;;;;;;;;;5124393;27;20054;-80
2022/10/28 06:46:16;;;;;;;20.20;7.78;;;;;;;;;;5130186;27;20120;-80
2022/10/28 06:48:42;;;;;;;22.83;8.40;;;;;;;;;;5149637;27;20222;-85
2022/10/28 06:51:09;;;;;;;20.73;7.93;;;;;;;;;;5130138;27;20540;-85
2022/10/28 06:53:35;;;;;;;25.52;8.90;;;;;;;;;;5129957;27;20055;-82
2022/10/28 06:56:02;;;;;;;24.20;9.15;;;;;;;;;;5128170;27;20055;-81
2022/10/28 06:58:28;;;;;;;26.25;8.18;;;;;;;;;;5132022;27;20074;-82
2022/10/28 07:00:54;;;;;;;19.75;7.60;;;;;;;;;;5128614;27;20043;-82
2022/10/28 07:03:21;;;;;;;20.20;7.35;;;;;;;;;;5129744;27;20055;-80
2022/10/28 07:05:50;;;;;;;17.88;7.20;;;;;;;;;;5128853;27;20091;-85
2022/10/28 07:08:17;;;;;;;21.88;7.07;;;;;;;;;;5122660;27;20436;-83
2022/10/28 07:10:43;;;;;;;18.38;7.40;;;;;;;;;;5127628;27;20058;-84
2022/10/28 07:13:09;;;;;;;16.95;7.03;;;;;;;;;;5138899;27;20056;-83
2022/10/28 07:15:36;;;;;;;20.02;7.57;;;;;;;;;;5120480;27;20043;-84
2022/10/28 07:18:04;;;;;;;17.38;7.15;;;;;;;;;;5148300;27;20047;-83
2022/10/28 07:20:31;;;;;;;19.23;7.10;;;;;;;;;;5128172;27;20073;-83
2022/10/28 07:22:59;;;;;;;19.58;7.63;;;;;;;;;;5112990;27;20048;-85
2022/10/28 07:25:26;;;;;;;21.60;7.82;;;;;;;;;;5111938;27;20055;-83
2022/10/28 07:27:52;;;;;;;16.70;7.07;;;;;;;;;;5144369;27;20055;-84
2022/10/28 07:30:19;;;;;;;15.45;6.68;;;;;;;;;;5126078;27;20047;-83
2022/10/28 07:32:46;;;;;;;16.95;6.65;;;;;;;;;;5125783;27;20055;-84
2022/10/28 07:35:12;;;;;;;17.25;7.03;;;;;;;;;;5123756;27;20055;-83
2022/10/28 07:37:38;;;;;;;21.35;7.00;;;;;;;;;;5125899;27;20544;-83
2022/10/28 07:40:05;;;;;;;18.88;7.25;;;;;;;;;;5118279;27;20055;-84
2022/10/28 07:42:34;;;;;;;18.15;7.22;;;;;;;;;;5123918;27;20054;-85
2022/10/28 07:45:01;;;;;;;16.67;6.90;;;;;;;;;;5123192;27;20068;-84
2022/10/28 07:47:27;;;;;;;18.27;7.32;;;;;;;;;;5119212;27;20059;-84
2022/10/28 07:49:53;;;;;;;20.67;7.80;;;;;;;;;;5123092;27;20696;-84
2022/10/28 07:52:20;;;;;;;19.63;8.02;;;;;;;;;;5127731;27;20081;-84
2022/10/28 07:54:46;;;;;;;23.70;8.10;;;;;;;;;;5121463;27;20051;-84
2022/10/28 07:57:13;;;;;;;18.90;8.52;;;;;;;;;;5122795;27;20057;-84
2022/10/28 07:59:42;;;;;;;19.83;8.25;;;;;;;;;;5119389;27;20883;-84
2022/10/28 08:02:14;;;;;;;22.73;8.05;;;;;;;;;;5127691;27;20052;-85
2022/10/28 08:04:40;;;;;;;16.73;7.85;;;;;;;;;;5128020;27;20548;-85
2022/10/28 08:07:06;;;;;;;19.25;8.60;;;;;;;;;;5127594;27;20501;-85
2022/10/28 08:09:33;;;;;;;23.95;8.15;;;;;;;;;;5123042;27;20067;-85
2022/10/28 08:11:59;;;;;;;18.92;7.45;;;;;;;;;;5127867;27;20058;-85
2022/10/28 08:14:25;;;;;;;20.02;8.68;;;;;;;;;;5128103;27;20058;-85
2022/10/28 08:16:52;;;;;;;18.63;7.68;;;;;;;;;;5128372;27;20444;-85
2022/10/28 08:19:18;;;;;;;18.88;8.00;;;;;;;;;;5123342;27;20063;-84
2022/10/28 08:21:45;;;;;;;16.95;7.53;;;;;;;;;;5128344;27;20051;-85
2022/10/28 08:24:12;;;;;;;19.10;7.70;;;;;;;;;;5145342;27;20062;-85
2022/10/28 08:26:38;;;;;;;19.13;8.35;;;;;;;;;;5116739;27;20058;-84
2022/10/28 08:29:04;;;;;;;27.13;9.13;;;;;;;;;;5125815;27;20520;-85
2022/10/28 08:31:32;;;;;;;21.17;8.45;;;;;;;;;;5127291;27;20047;-85
2022/10/28 08:33:58;;;;;;;19.75;9.23;;;;;;;;;;5128050;27;20563;-85
2022/10/28 08:36:24;;;;;;;21.08;9.00;;;;;;;;;;5127647;27;20047;-85
2022/10/28 08:38:50;;;;;;;17.63;8.15;;;;;;;;;;5110212;27;20059;-84
2022/10/28 08:41:23;;;;;;;20.20;8.50;;;;;;;;;;5126335;27;20051;-85
2022/10/28 08:43:49;;;;;;;20.48;8.18;;;;;;;;;;5128235;27;20048;-84
2022/10/28 08:46:26;;;;;;;19.70;8.18;;;;;;;;;;5127732;27;20140;-84
2022/10/28 08:48:52;;;;;;;17.70;7.07;;;;;;;;;;5128066;27;20477;-84
2022/10/28 08:51:39;;;;;;;20.67;6.63;;;;;;;;;;5126503;27;20481;-84
2022/10/28 08:54:10;;;;;;;19.50;6.65;;;;;;;;;;5107614;27;20058;-84
2022/10/28 08:56:44;;;;;;;18.17;6.40;;;;;;;;;;5126379;27;20048;-85
2022/10/28 08:59:22;;;;;;;15.32;6.07;;;;;;;;;;5128403;27;20140;-84
2022/10/28 09:01:51;;;;;;;19.30;6.45;;;;;;;;;;5131286;27;20722;-84
2022/10/28 09:04:25;;;;;;;14.63;6.60;;;;;;;;;;5130282;27;20047;-84
2022/10/28 09:06:51;;;;;;;16.35;6.45;;;;;;;;;;5130236;27;20058;-84
2022/10/28 09:09:19;;;;;;;21.42;6.72;;;;;;;;;;5117966;27;20054;-84
2022/10/28 09:11:52;;;;;;;14.20;5.97;;;;;;;;;;5147394;27;20082;-85
2022/10/28 09:14:26;;;;;;;15.77;6.10;;;;;;;;;;5147691;27;20078;-84
2022/10/28 09:16:58;;;;;;;17.95;6.60;;;;;;;;;;5110641;27;20066;-84
2022/10/28 09:19:27;;;;;;;13.55;5.72;;;;;;;;;;5110633;27;20949;-85
2022/10/28 09:22:06;;;;;;;17.92;6.20;;;;;;;;;;5113674;27;20517;-84
2022/10/28 09:24:39;;;;;;;14.85;5.93;;;;;;;;;;5137447;27;20682;-84
2022/10/28 09:27:09;;;;;;;16.48;6.03;;;;;;;;;;5121722;27;20062;-82
2022/10/28 09:29:41;;;;;;;19.58;6.47;;;;;;;;;;5130755;27;20055;-82
2022/10/28 09:32:15;;;;;;;17.85;6.50;;;;;;;;;;5142216;27;20039;-82
2022/10/28 09:34:59;;;;;;;13.88;5.45;;;;;;;;;;5142128;27;20043;-88
2022/10/28 09:37:28;;;;;;;14.77;6.40;;;;;;;;;;5119873;27;20060;-85
2022/10/28 09:39:56;;;;;;;15.40;5.68;;;;;;;;;;5129182;27;20055;-85
2022/10/28 09:42:30;;;;;;;18.38;6.00;;;;;;;;;;5124519;27;20663;-85
2022/10/28 09:44:59;;;;;;;17.15;5.50;;;;;;;;;;5128078;27;20051;-86
2022/10/28 09:47:29;;;;;;;17.42;5.75;;;;;;;;;;5148742;27;20063;-86
2022/10/28 09:49:57;;;;;;;15.30;6.43;;;;;;;;;;5124984;27;20058;-86
2022/10/28 09:52:27;;;;;;;13.35;5.32;;;;;;;;;;5125063;27;20047;-85
2022/10/28 09:54:54;;;;;;;18.05;6.05;;;;;;;;;;5127262;27;20054;-85
2022/10/28 09:57:21;;;;;;;13.98;5.72;;;;;;;;;;5121338;27;20428;-85
2022/10/28 09:59:47;;;;;;;17.70;6.15;;;;;;;;;;5121640;27;20047;-84
2022/10/28 10:02:26;;;;;;;13.95;5.60;;;;;;;;;;5139480;27;21339;-85
2022/10/28 10:04:56;;;;;;;15.50;5.78;;;;;;;;;;5118917;27;20781;-85
2022/10/28 10:07:37;;;;;;;12.32;5.22;;;;;;;;;;5123617;27;20086;-85
2022/10/28 10:10:06;;;;;;;14.82;5.03;;;;;;;;;;5127027;27;20058;-85
2022/10/28 10:12:32;;;;;;;16.15;5.72;;;;;;;;;;5128552;27;20833;-85
2022/10/28 10:14:59;;;;;;;12.63;5.40;;;;;;;;;;5147029;27;20863;-85
2022/10/28 10:17:32;;;;;;;17.67;5.22;;;;;;;;;;5127539;27;20055;-84
2022/10/28 10:19:59;;;;;;;14.82;5.03;;;;;;;;;;5143882;27;20497;-85
2022/10/28 10:22:33;;;;;;;14.70;4.95;;;;;;;;;;5140933;27;20043;-85
2022/10/28 10:25:00;;;;;;;16.73;5.50;;;;;;;;;;5121804;27;20047;-86
2022/10/28 10:27:27;;;;;;;17.45;5.75;;;;;;;;;;5126978;27;20060;-84
2022/10/28 10:29:54;;;;;;;18.48;5.55;;;;;;;;;;5122555;27;20051;-85
2022/10/28 10:32:30;;;;;;;16.98;5.38;;;;;;;;;;5138756;27;20137;-85
2022/10/28 10:35:05;;;;;;;13.50;4.72;;;;;;;;;;5125244;27;20831;-84
2022/10/28 10:37:35;;;;;;;15.13;5.40;;;;;;;;;;5128531;27;20445;-85
2022/10/28 10:40:10;;;;;;;14.00;4.80;;;;;;;;;;5128173;27;20051;-85
2022/10/28 10:42:37;;;;;;;22.08;4.85;;;;;;;;;;5147424;27;20280;-84
2022/10/28 10:45:25;;;;;;;20.15;5.30;;;;;;;;;;5127966;27;20086;-85
2022/10/28 10:48:05;;;;;;;16.67;5.18;;;;;;;;;;5109203;27;20059;-84
2022/10/28 10:50:31;;;;;;;14.60;5.03;;;;;;;;;;5120851;27;20063;-85
2022/10/28 10:52:59;;;;;;;15.65;5.43;;;;;;;;;;5128412;27;20185;-83
2022/10/28 10:55:31;;;;;;;14.68;4.93;;;;;;;;;;5127913;27;20043;-83
2022/10/28 10:57:57;;;;;;;15.23;5.13;;;;;;;;;;5127532;27;20055;-84
2022/10/28 11:00:27;;;;;;;13.57;5.25;;;;;;;;;;5129322;27;20043;-83
2022/10/28 11:02:53;;;;;;;17.35;5.25;;;;;;;;;;5146585;27;20055;-83
2022/10/28 11:05:22;;;;;;;15.98;4.57;;;;;;;;;;5141824;27;20073;-84
2022/10/28 11:07:55;;;;;;;12.23;4.63;;;;;;;;;;5147376;27;20092;-84
2022/10/28 11:10:23;;;;;;;13.45;4.25;;;;;;;;;;5126655;27;20138;-84
2022/10/28 11:12:51;;;;;;;20.10;5.28;;;;;;;;;;5127656;27;20062;-84
2022/10/28 11:15:28;;;;;;;14.30;4.85;;;;;;;;;;5126383;27;20071;-84
2022/10/28 11:17:56;;;;;;;17.08;4.90;;;;;;;;;;5119757;27;20949;-84
2022/10/28 11:20:28;;;;;;;18.08;4.68;;;;;;;;;;5128451;27;20043;-84
2022/10/28 11:23:30;;;;;;;14.52;5.03;;;;;;;;;;5129444;27;20062;-84
2022/10/28 11:26:02;;;;;;;15.50;5.20;;;;;;;;;;5029590;28;20057;-84
2022/10/28 11:28:41;;;;;;;13.68;4.63;;;;;;;;;;5107354;27;20059;-83
2022/10/28 11:31:07;;;;;;;19.95;5.47;;;;;;;;;;5128358;27;20886;-84
2022/10/28 11:33:47;;;;;;;15.40;4.95;;;;;;;;;;5147028;27;20402;-84
2022/10/28 11:36:29;;;;;;;18.42;5.18;;;;;;;;;;5126042;27;20055;-84
2022/10/28 11:39:18;;;;;;;18.98;5.03;;;;;;;;;;5125203;27;20051;-84
2022/10/28 11:41:54;;;;;;;17.25;4.47;;;;;;;;;;5123206;27;20059;-84
2022/10/28 11:44:31;;;;;;;12.98;4.78;;;;;;;;;;5145635;27;20132;-84
2022/10/28 11:47:21;;;;;;;13.93;4.65;;;;;;;;;;5124601;27;20048;-84
2022/10/28 11:50:01;;;;;;;15.80;5.45;;;;;;;;;;5107287;27;20907;-84
2022/10/28 11:52:41;;;;;;;13.37;4.07;;;;;;;;;;5126263;27;20059;-84
2022/10/28 11:55:25;;;;;;;14.60;4.63;;;;;;;;;;5111780;27;20273;-83
2022/10/28 11:57:51;;;;;;;12.75;4.85;;;;;;;;;;5125863;27;20493;-83
2022/10/28 12:00:33;;;;;;;18.30;5.07;;;;;;;;;;5126528;27;21237;-84
2022/10/28 12:03:18;;;;;;;11.93;3.88;;;;;;;;;;5110957;27;20055;-84
2022/10/28 12:06:07;;;;;;;15.23;4.63;;;;;;;;;;5120578;27;20925;-84
2022/10/28 12:08:49;;;;;;;19.15;5.20;;;;;;;;;;5128548;27;20059;-84
2022/10/28 12:11:15;;;;;;;13.70;4.40;;;;;;;;;;5127991;27;20059;-84
2022/10/28 12:13:41;;;;;;;11.57;3.95;;;;;;;;;;5123916;27;20055;-84
2022/10/28 12:16:24;;;;;;;21.67;4.13;;;;;;;;;;5112758;27;20048;-84
2022/10/28 12:18:57;;;;;;;16.65;3.72;;;;;;;;;;5125699;27;20501;-84
2022/10/28 12:21:30;;;;;;;18.63;4.05;;;;;;;;;;5127413;27;20051;-84
2022/10/28 12:23:57;;;;;;;12.25;3.63;;;;;;;;;;5142127;27;20056;-84
2022/10/28 12:26:36;;;;;;;15.45;3.90;;;;;;;;;;5128073;27;20556;-84
2022/10/28 12:29:04;;;;;;;11.95;4.03;;;;;;;;;;5125529;27;20055;-84
2022/10/28 12:31:38;;;;;;;16.10;4.15;;;;;;;;;;5127285;27;20051;-84
2022/10/28 12:34:08;;;;;;;19.00;3.88;;;;;;;;;;5128543;27;20516;-83
2022/10/28 12:36:40;;;;;;;11.65;3.70;;;;;;;;;;5144328;27;20047;-84
2022/10/28 12:39:25;;;;;;;12.20;4.47;;;;;;;;;;5140819;27;20058;-84
2022/10/28 12:41:55;;;;;;;14.50;3.40;;;;;;;;;;5144052;27;20051;-84
2022/10/28 12:44:23;;;;;;;13.13;3.85;;;;;;;;;;5127050;27;20047;-84
2022/10/28 12:47:00;;;;;;;15.88;4.20;;;;;;;;;;5128409;27;20102;-84
2022/10/28 12:49:36;;;;;;;13.70;3.90;;;;;;;;;;5126824;27;20499;-84
2022/10/28 12:52:22;;;;;;;15.07;4.03;;;;;;;;;;5103626;27;20055;-84
2022/10/28 12:55:07;;;;;;;17.83;4.65;;;;;;;;;;5109066;27;20059;-84
2022/10/28 12:57:36;;;;;;;15.35;4.28;;;;;;;;;;5120622;27;20058;-83
2022/10/28 13:00:02;;;;;;;18.52;4.43;;;;;;;;;;5127024;27;20059;-83
2022/10/28 13:02:45;;;;;;;13.10;4.10;;;;;;;;;;5127118;27;20066;-83
2022/10/28 13:05:18;;;;;;;15.63;4.38;;;;;;;;;;5127816;27;20441;-84
2022/10/28 13:07:48;;;;;;;11.57;3.92;;;;;;;;;;5125655;27;20064;-84
2022/10/28 13:10:28;;;;;;;20.08;3.50;;;;;;;;;;5129162;27;20085;-83
2022/10/28 13:12:54;;;;;;;11.63;3.75;;;;;;;;;;5127458;27;20035;-84
2022/10/28 13:15:21;;;;;;;14.82;4.30;;;;;;;;;;5132808;27;20059;-84
2022/10/28 13:18:06;;;;;;;9.60;3.65;;;;;;;;;;5136174;27;20051;-84
2022/10/28 13:20:47;;;;;;;11.63;3.97;;;;;;;;;;5156261;27;20079;-84
2022/10/28 13:23:21;;;;;;;13.90;3.72;;;;;;;;;;5125737;27;20063;-84
2022/10/28 13:25:59;;;;;;;16.42;4.30;;;;;;;;;;5137190;27;20073;-84
2022/10/28 13:28:31;;;;;;;18.23;4.35;;;;;;;;;;5130613;27;20081;-86
2022/10/28 13:30:59;;;;;;;17.65;4.15;;;;;;;;;;5157230;27;20054;-80
2022/10/28 13:33:26;;;;;;;17.80;4.22;;;;;;;;;;5134311;27;20047;-82
2022/10/28 13:35:54;;;;;;;15.18;4.50;;;;;;;;;;5145467;27;20107;-81
2022/10/28 13:38:22;;;;;;;23.08;4.85;;;;;;;;;;5148225;27;20054;-81
2022/10/28 13:40:54;;;;;;;17.60;4.72;;;;;;;;;;5160072;27;20051;-81
2022/10/28 13:43:41;;;;;;;21.73;4.18;;;;;;;;;;5137328;27;20102;-83
2022/10/28 13:46:07;;;;;;;17.50;4.00;;;;;;;;;;5139391;27;20047;-82
2022/10/28 13:48:44;;;;;;;16.20;4.32;;;;;;;;;;5130677;27;20551;-83
2022/10/28 13:51:10;;;;;;;17.35;4.50;;;;;;;;;;5115023;27;20442;-84
2022/10/28 13:53:38;;;;;;;14.23;4.13;;;;;;;;;;5127048;27;20721;-83
2022/10/28 13:56:10;;;;;;;13.73;4.05;;;;;;;;;;5134741;27;20106;-84
2022/10/28 13:58:37;;;;;;;14.98;4.53;;;;;;;;;;5133113;27;20053;-83
2022/10/28 14:01:22;;;;;;;14.40;5.05;;;;;;;;;;5152928;27;20063;-83
2022/10/28 14:03:50;;;;;;;19.05;4.57;;;;;;;;;;5132027;27;20059;-84
2022/10/28 14:06:28;;;;;;;18.05;4.50;;;;;;;;;;5128395;27;20548;-85
2022/10/28 14:08:55;;;;;;;19.27;4.32;;;;;;;;;;5133393;27;20120;-84
2022/10/28 14:11:22;;;;;;;14.60;4.13;;;;;;;;;;5126628;27;20043;-84
2022/10/28 14:13:50;;;;;;;14.45;4.57;;;;;;;;;;5146492;27;20521;-83
2022/10/28 14:16:20;;;;;;;16.33;4.80;;;;;;;;;;5153487;27;20047;-84
2022/10/28 14:18:53;;;;;;;17.27;4.72;;;;;;;;;;5134848;27;20536;-83
2022/10/28 14:21:21;;;;;;;10.65;3.95;;;;;;;;;;5131230;27;20047;-84
2022/10/28 14:23:47;;;;;;;18.40;4.35;;;;;;;;;;5132896;27;20120;-83
2022/10/28 14:26:13;;;;;;;15.10;4.07;;;;;;;;;;5132066;27;20058;-83
2022/10/28 14:28:40;;;;;;;13.10;3.80;;;;;;;;;;5129130;27;20043;-84
2022/10/28 14:31:06;;;;;;;15.30;4.45;;;;;;;;;;5129890;27;20055;-84
2022/10/28 14:33:36;;;;;;;17.58;4.55;;;;;;;;;;5133590;27;20761;-83
2022/10/28 14:36:11;;;;;;;13.60;4.55;;;;;;;;;;5118306;27;20220;-85
2022/10/28 14:39:00;;;;;;;17.83;4.25;;;;;;;;;;5151649;27;20532;-83
2022/10/28 14:41:37;;;;;;;14.50;4.28;;;;;;;;;;5125246;27;20532;-85
2022/10/28 14:44:15;;;;;;;15.05;4.30;;;;;;;;;;5113394;27;20421;-84
2022/10/28 14:47:08;;;;;;;14.25;4.68;;;;;;;;;;5121016;27;20054;-83
2022/10/28 14:49:35;;;;;;;15.98;4.15;;;;;;;;;;5108178;27;20054;-84